Time;durP1;ratioP1;P1;durP2;ratioP2;P2;SDS_P1;SDS_P2;PMS_P1;PMS_P2;Temp;Humidity;BMP_temperature;BMP_pressure;BME280_temperature;BME280_humidity;BME280_pressure;Samples;Min_cycle;Max_cycle;Signal;HPM_P1;HPM_P2
2021/05/15 04:44:59;;;;;;;1.75;1.30;;;;;;;23.43;38.73;98708.74;1670408;83;21121;-44
2021/05/15 04:47:27;;;;;;;2.30;1.40;;;;;;;23.40;38.73;98709.05;1675072;82;21524;-43
2021/05/15 04:49:54;;;;;;;3.15;1.60;;;;;;;23.33;38.81;98706.14;1676859;82;21853;-44
2021/05/15 04:52:20;;;;;;;3.25;1.30;;;;;;;23.28;38.94;98713.30;1674393;83;21062;-44
2021/05/15 04:54:47;;;;;;;4.65;1.12;;;;;;;23.24;39.03;98713.78;1704424;81;21077;-44
2021/05/15 04:57:16;;;;;;;1.77;1.22;;;;;;;23.21;39.08;98720.29;1675235;83;21094;-44
2021/05/15 04:59:43;;;;;;;4.10;1.57;;;;;;;23.16;39.18;98723.42;1708739;81;22589;-44
2021/05/15 05:02:10;;;;;;;1.70;1.30;;;;;;;23.09;39.40;98724.20;1707200;81;21691;-43
2021/05/15 05:04:36;;;;;;;3.85;1.55;;;;;;;23.02;39.60;98728.47;1668170;83;21607;-43
2021/05/15 05:07:03;;;;;;;9.65;1.70;;;;;;;22.94;39.83;98727.37;1676267;83;21140;-47
2021/05/15 05:09:31;;;;;;;6.85;1.52;;;;;;;22.94;40.23;98735.41;1697586;82;21039;-45
2021/05/15 05:11:59;;;;;;;5.10;1.40;;;;;;;22.96;40.37;98734.79;1698173;82;21486;-46
2021/05/15 05:14:25;;;;;;;2.25;1.70;;;;;;;22.95;40.49;98730.41;1676770;82;21061;-47
2021/05/15 05:16:55;;;;;;;1.75;1.20;;;;;;;22.95;40.50;98742.98;1699114;82;21054;-47
2021/05/15 05:19:22;;;;;;;2.75;1.20;;;;;;;22.94;40.56;98751.51;1700505;82;21957;-45
2021/05/15 05:21:50;;;;;;;2.67;1.42;;;;;;;22.91;40.57;98754.48;1673750;82;21625;-45
2021/05/15 05:24:17;;;;;;;2.98;1.32;;;;;;;22.91;40.73;98755.00;1699647;82;21042;-47
2021/05/15 05:26:43;;;;;;;4.00;1.45;;;;;;;22.91;40.65;98757.17;1677449;83;21629;-45
2021/05/15 05:29:10;;;;;;;4.25;1.70;;;;;;;22.94;40.71;98761.41;1697740;82;21080;-46
2021/05/15 05:31:40;;;;;;;5.28;1.72;;;;;;;22.94;40.72;98747.48;1700880;82;21105;-44
2021/05/15 05:34:08;;;;;;;5.95;1.57;;;;;;;22.99;40.75;98750.56;1696944;82;21063;-45
2021/05/15 05:36:36;;;;;;;5.70;1.82;;;;;;;23.11;40.54;98756.58;1697687;82;21078;-45
2021/05/15 05:39:05;;;;;;;3.67;1.47;;;;;;;23.23;40.15;98754.52;1699147;82;21070;-45
2021/05/15 05:41:32;;;;;;;6.22;1.40;;;;;;;23.35;39.91;98751.11;1718081;81;21074;-45
2021/05/15 05:43:58;;;;;;;4.97;1.62;;;;;;;23.48;39.64;98753.42;1721556;81;21097;-45
2021/05/15 05:46:25;;;;;;;3.60;1.72;;;;;;;23.60;39.43;98757.53;1721310;81;21088;-45
2021/05/15 05:48:51;;;;;;;6.55;1.42;;;;;;;23.69;39.26;98757.97;1720729;81;21061;-45
2021/05/15 05:51:18;;;;;;;2.55;1.55;;;;;;;23.79;39.01;98762.38;1697922;81;21658;-45
2021/05/15 05:53:45;;;;;;;2.12;1.27;;;;;;;23.86;38.86;98762.16;1721323;81;21086;-45
2021/05/15 05:56:12;;;;;;;1.37;1.22;;;;;;;23.93;38.62;98759.18;1684235;82;21089;-45
2021/05/15 05:58:40;;;;;;;6.47;1.67;;;;;;;23.99;38.50;98763.06;1725680;81;21171;-45
2021/05/15 06:01:07;;;;;;;3.67;1.60;;;;;;;24.05;38.49;98774.03;1719423;81;21625;-45
2021/05/15 06:03:34;;;;;;;3.62;1.22;;;;;;;24.09;38.36;98769.18;1718903;81;21060;-45
2021/05/15 06:06:01;;;;;;;3.45;1.40;;;;;;;24.13;38.26;98770.56;1720153;81;21266;-45
2021/05/15 06:08:28;;;;;;;2.00;1.60;;;;;;;24.16;38.15;98774.77;1723067;81;21641;-46
2021/05/15 06:10:54;;;;;;;4.20;1.50;;;;;;;24.18;38.30;98774.97;1699674;81;22119;-46
2021/05/15 06:13:21;;;;;;;1.57;1.40;;;;;;;24.20;38.20;98773.47;1697247;81;21049;-45
2021/05/15 06:15:49;;;;;;;2.42;1.40;;;;;;;24.22;38.19;98775.48;1724895;80;21127;-45
2021/05/15 06:18:16;;;;;;;3.30;1.35;;;;;;;24.25;38.20;98776.52;1695064;82;21067;-46
2021/05/15 06:20:43;;;;;;;4.95;1.25;;;;;;;24.29;38.16;98777.88;1712238;81;20964;-45
2021/05/15 06:23:10;;;;;;;4.58;1.55;;;;;;;24.34;38.15;98780.09;1726240;80;21219;-46
2021/05/15 06:25:36;;;;;;;1.72;1.30;;;;;;;24.38;38.18;98779.63;1678894;83;21588;-46
2021/05/15 06:28:04;;;;;;;5.67;1.65;;;;;;;24.41;38.24;98777.96;1684277;83;21133;-46
2021/05/15 06:30:30;;;;;;;2.67;1.32;;;;;;;24.45;38.22;98777.97;1696821;81;21115;-46
2021/05/15 06:32:57;;;;;;;6.92;1.85;;;;;;;24.51;38.11;98783.23;1721166;81;21045;-45
2021/05/15 06:35:25;;;;;;;6.78;1.80;;;;;;;24.60;38.02;98786.83;1724922;81;21058;-45
2021/05/15 06:37:51;;;;;;;6.90;1.75;;;;;;;24.68;37.92;98785.52;1720663;81;21478;-46
2021/05/15 06:40:18;;;;;;;10.55;2.00;;;;;;;24.77;37.81;98788.57;1695923;80;21590;-46
2021/05/15 06:42:45;;;;;;;2.75;1.40;;;;;;;24.83;37.69;98789.28;1718217;81;21660;-47
2021/05/15 06:45:12;;;;;;;2.42;1.65;;;;;;;24.89;37.62;98795.02;1700454;81;21566;-43
2021/05/15 06:47:38;;;;;;;6.97;1.40;;;;;;;24.96;37.78;98793.34;1679366;83;21153;-45
2021/05/15 06:50:06;;;;;;;2.40;1.45;;;;;;;25.03;37.66;98799.27;1679260;83;21042;-45
2021/05/15 06:52:33;;;;;;;3.25;1.40;;;;;;;25.08;37.56;98797.41;1696805;81;21077;-45
2021/05/15 06:54:59;;;;;;;3.85;1.57;;;;;;;25.12;37.50;98797.44;1692255;82;21129;-44
2021/05/15 06:57:26;;;;;;;5.15;1.50;;;;;;;25.15;37.99;98801.16;1691419;82;22187;-44
2021/05/15 06:59:52;;;;;;;2.30;1.85;;;;;;;25.21;38.29;98802.34;1695599;82;21624;-45
2021/05/15 07:02:19;;;;;;;3.12;1.45;;;;;;;25.26;38.33;98804.55;1670297;82;21044;-45
2021/05/15 07:04:46;;;;;;;4.55;1.65;;;;;;;25.29;38.26;98804.25;1708384;81;21093;-47
2021/05/15 07:07:12;;;;;;;5.05;1.67;;;;;;;25.34;38.26;98799.21;1696576;81;21669;-45
2021/05/15 07:09:39;;;;;;;20.02;2.40;;;;;;;25.40;38.23;98805.26;1718594;81;21893;-45
2021/05/15 07:12:06;;;;;;;29.15;2.20;;;;;;;25.45;38.15;98804.77;1691166;82;21113;-42
2021/05/15 07:14:32;;;;;;;15.55;2.20;;;;;;;25.50;38.05;98808.67;1699567;82;21025;-42
2021/05/15 07:16:59;;;;;;;34.45;14.75;;;;;;;25.56;37.96;98812.02;1658117;84;21112;-44
2021/05/15 07:19:26;;;;;;;18.75;5.53;;;;;;;25.65;37.73;98801.26;1626075;84;21102;-43
2021/05/15 07:21:53;;;;;;;11.97;3.75;;;;;;;25.70;37.45;98808.33;1658872;84;21067;-44
2021/05/15 07:24:19;;;;;;;12.00;4.03;;;;;;;25.74;37.23;98805.14;1687677;82;21101;-45
2021/05/15 07:26:46;;;;;;;15.55;2.58;;;;;;;25.80;36.94;98807.66;1692863;82;21419;-43
2021/05/15 07:29:13;;;;;;;10.30;2.20;;;;;;;25.85;36.75;98809.34;1677217;83;21192;-43
2021/05/15 07:31:39;;;;;;;4.67;1.67;;;;;;;25.89;36.56;98813.41;1688889;82;21131;-44
2021/05/15 07:34:06;;;;;;;4.85;1.42;;;;;;;25.94;36.34;98812.39;1685310;82;21145;-44
2021/05/15 07:36:32;;;;;;;2.95;1.60;;;;;;;26.00;36.12;98807.36;1688671;82;21116;-44
2021/05/15 07:38:59;;;;;;;2.65;1.32;;;;;;;26.03;35.99;98816.46;1659945;82;21066;-44
2021/05/15 07:41:27;;;;;;;4.40;1.40;;;;;;;26.03;35.90;98807.86;1706478;82;22109;-44
2021/05/15 07:43:53;;;;;;;2.75;1.30;;;;;;;26.03;35.90;98808.38;1689551;81;21057;-43
2021/05/15 07:46:20;;;;;;;7.28;2.15;;;;;;;26.05;35.79;98819.82;1696577;81;21099;-45
2021/05/15 07:48:47;;;;;;;4.55;1.20;;;;;;;26.07;35.75;98811.05;1720296;81;21085;-45
2021/05/15 07:51:20;;;;;;;2.35;1.30;;;;;;;26.09;35.70;98818.45;1696856;82;21039;-48
2021/05/15 07:53:45;;;;;;;2.22;1.55;;;;;;;26.13;35.53;98813.08;1718495;81;21434;-44
2021/05/15 07:56:11;;;;;;;3.22;1.15;;;;;;;26.18;35.35;98810.71;1718494;81;21494;-44
2021/05/15 07:58:38;;;;;;;3.37;1.20;;;;;;;26.21;35.32;98804.98;1718710;81;21009;-44
2021/05/15 08:01:05;;;;;;;1.35;1.00;;;;;;;26.22;35.26;98806.64;1728111;80;22056;-44
2021/05/15 08:03:32;;;;;;;3.30;1.60;;;;;;;26.22;35.21;98805.30;1654506;83;21673;-42
2021/05/15 08:06:00;;;;;;;3.50;1.10;;;;;;;26.25;35.17;98809.00;1701068;81;22029;-43
2021/05/15 08:08:26;;;;;;;3.77;1.37;;;;;;;26.29;35.05;98806.32;1698584;81;21626;-43
2021/05/15 08:10:53;;;;;;;1.80;1.27;;;;;;;26.32;34.95;98808.64;1721816;81;21630;-43
2021/05/15 08:13:19;;;;;;;3.12;1.40;;;;;;;26.35;34.93;98809.34;1696729;82;21970;-43
2021/05/15 08:15:46;;;;;;;4.42;1.42;;;;;;;26.35;34.88;98813.39;1719936;81;21601;-46
2021/05/15 08:18:12;;;;;;;3.77;1.10;;;;;;;26.32;34.89;98812.69;1692391;81;22429;-44
2021/05/15 08:20:39;;;;;;;1.80;1.00;;;;;;;26.33;34.90;98819.78;1721190;81;21544;-43
2021/05/15 08:23:06;;;;;;;3.62;1.17;;;;;;;26.33;34.90;98817.60;1733697;80;21068;-44
2021/05/15 08:25:33;;;;;;;1.40;1.25;;;;;;;26.33;34.88;98817.08;1718395;81;21045;-43
2021/05/15 08:28:03;;;;;;;1.72;1.00;;;;;;;26.32;34.90;98815.39;1710317;81;21033;-44
2021/05/15 08:30:29;;;;;;;3.62;0.98;;;;;;;26.32;34.91;98818.09;1722797;81;21092;-43
2021/05/15 08:32:56;;;;;;;3.85;1.20;;;;;;;26.37;34.84;98820.80;1717347;81;21140;-45
2021/05/15 08:35:24;;;;;;;5.03;1.40;;;;;;;26.39;34.79;98814.72;1729465;80;21049;-44
2021/05/15 08:37:51;;;;;;;3.25;1.75;;;;;;;26.38;34.67;98815.71;1721979;81;21207;-42
2021/05/15 08:40:18;;;;;;;4.37;2.33;;;;;;;26.39;34.66;98818.76;1721549;81;21057;-42
2021/05/15 08:42:46;;;;;;;1.70;1.60;;;;;;;26.40;34.59;98824.50;1695091;81;21018;-42
2021/05/15 08:45:15;;;;;;;3.50;1.75;;;;;;;26.37;34.66;98827.53;1718225;81;21323;-42
2021/05/15 08:47:43;;;;;;;3.15;1.40;;;;;;;26.33;34.69;98818.44;1697388;81;21626;-42
2021/05/15 08:50:14;;;;;;;4.45;1.32;;;;;;;26.32;34.70;98818.09;1683414;83;21113;-42
2021/05/15 08:52:44;;;;;;;9.28;1.37;;;;;;;26.32;34.75;98820.78;1719654;81;21035;-42
2021/05/15 08:55:14;;;;;;;3.05;1.20;;;;;;;26.35;34.69;98822.31;1723367;81;21120;-42
2021/05/15 08:57:40;;;;;;;2.15;1.40;;;;;;;26.39;34.68;98821.45;1724182;80;21086;-42
2021/05/15 09:00:25;;;;;;;2.85;1.50;;;;;;;26.42;34.58;98822.47;1718540;81;21017;-43
2021/05/15 09:02:56;;;;;;;8.28;1.45;;;;;;;26.45;34.45;98822.13;1724749;81;21089;-45
2021/05/15 09:05:23;;;;;;;2.70;1.10;;;;;;;26.48;34.40;98820.44;1722177;81;21028;-44
2021/05/15 09:07:55;;;;;;;1.65;0.98;;;;;;;26.52;34.38;98827.16;1694386;80;21107;-46
2021/05/15 09:10:30;;;;;;;8.17;1.47;;;;;;;26.55;34.40;98825.47;1697069;81;21033;-43
2021/05/15 09:13:17;;;;;;;7.12;1.10;;;;;;;26.62;34.38;98826.45;1715870;81;21029;-44
2021/05/15 09:15:58;;;;;;;1.92;1.10;;;;;;;26.66;34.30;98829.19;1730437;81;21090;-43
2021/05/15 09:18:29;;;;;;;2.75;1.30;;;;;;;26.72;34.13;98825.46;1720387;81;20995;-45
2021/05/15 09:20:58;;;;;;;1.90;1.15;;;;;;;26.77;34.11;98827.13;1723410;81;21735;-44
2021/05/15 09:23:28;;;;;;;4.17;1.27;;;;;;;26.80;34.07;98833.02;1700569;81;21065;-48
2021/05/15 09:26:11;;;;;;;1.50;1.40;;;;;;;26.83;34.08;98829.11;1718524;81;22133;-44
2021/05/15 09:28:53;;;;;;;2.87;1.30;;;;;;;26.84;34.06;98828.10;1700649;81;21041;-46
2021/05/15 09:31:28;;;;;;;4.58;1.40;;;;;;;26.87;34.08;98833.16;1697424;81;21049;-46
2021/05/15 09:34:06;;;;;;;7.62;1.35;;;;;;;26.88;34.07;98838.88;1720820;81;21120;-45
2021/05/15 09:36:43;;;;;;;6.12;1.52;;;;;;;26.88;34.02;98846.97;1720564;81;22278;-44
2021/05/15 09:39:21;;;;;;;7.10;1.25;;;;;;;26.88;34.00;98838.88;1699446;81;21059;-44
2021/05/15 09:41:57;;;;;;;5.65;1.20;;;;;;;26.88;33.93;98841.08;1693296;81;22341;-43
2021/05/15 09:44:30;;;;;;;4.28;1.30;;;;;;;26.89;33.78;98845.97;1721562;81;21046;-44
2021/05/15 09:47:04;;;;;;;5.47;1.35;;;;;;;26.90;33.73;98850.36;1757363;79;21969;-44
2021/05/15 09:49:35;;;;;;;4.47;1.30;;;;;;;26.91;33.57;98845.27;1730140;81;21120;-45
2021/05/15 09:52:08;;;;;;;4.80;1.27;;;;;;;26.95;33.48;98847.11;1758086;79;21698;-44
2021/05/15 09:54:40;;;;;;;6.00;1.77;;;;;;;26.95;33.42;98847.11;1727992;81;21085;-46
2021/05/15 09:57:13;;;;;;;4.65;1.30;;;;;;;26.96;33.50;98841.54;1726767;81;21000;-45
2021/05/15 09:59:45;;;;;;;5.33;1.30;;;;;;;26.96;33.40;98842.89;1720114;79;21084;-45
2021/05/15 10:02:18;;;;;;;7.17;1.17;;;;;;;26.90;33.36;98847.66;1721363;80;21140;-45
2021/05/15 10:04:53;;;;;;;3.65;1.25;;;;;;;26.83;33.45;98860.14;1757383;79;20970;-45
2021/05/15 10:07:25;;;;;;;3.25;1.20;;;;;;;26.75;33.41;98860.17;1757106;79;21080;-44
2021/05/15 10:09:53;;;;;;;2.92;1.02;;;;;;;26.72;33.18;98862.72;1718314;79;21118;-45
2021/05/15 10:12:24;;;;;;;8.85;1.20;;;;;;;26.67;33.33;98864.58;1727791;81;21068;-45
2021/05/15 10:14:55;;;;;;;5.23;1.40;;;;;;;26.62;33.83;98864.74;1757589;79;21719;-44
2021/05/15 10:17:26;;;;;;;4.08;1.05;;;;;;;26.54;34.04;98866.94;1721696;80;21318;-45
2021/05/15 10:20:02;;;;;;;3.85;0.93;;;;;;;26.52;34.09;98871.67;1694057;81;22348;-45
2021/05/15 10:22:42;;;;;;;5.25;1.07;;;;;;;26.53;34.15;98877.90;1727729;81;21168;-45
2021/05/15 10:25:15;;;;;;;2.35;1.10;;;;;;;26.52;33.99;98877.06;1757748;79;21648;-45
2021/05/15 10:27:42;;;;;;;8.35;1.30;;;;;;;26.49;34.22;98873.36;1757214;80;21044;-45
2021/05/15 10:30:21;;;;;;;8.78;1.57;;;;;;;26.43;34.44;98869.50;1727578;81;21061;-45
2021/05/15 10:32:56;;;;;;;1.67;1.10;;;;;;;26.44;34.38;98877.08;1757149;80;21084;-45
2021/05/15 10:35:39;;;;;;;1.80;0.85;;;;;;;26.48;34.26;98875.73;1728903;81;22111;-45
2021/05/15 10:38:11;;;;;;;11.03;1.12;;;;;;;26.49;33.93;98863.91;1756000;79;22060;-46
2021/05/15 10:40:53;;;;;;;4.08;0.80;;;;;;;26.45;33.75;98866.12;1728677;81;21073;-45
2021/05/15 10:43:35;;;;;;;1.30;0.80;;;;;;;26.42;33.65;98865.63;1723847;80;21092;-45
2021/05/15 10:46:29;;;;;;;1.50;1.00;;;;;;;26.32;33.74;98867.14;1724152;79;21056;-45
2021/05/15 10:49:08;;;;;;;2.27;1.15;;;;;;;26.25;33.94;98868.33;1733398;81;21124;-45
2021/05/15 10:51:53;;;;;;;1.47;0.82;;;;;;;26.23;34.04;98871.71;1734767;81;21082;-45
2021/05/15 10:54:41;;;;;;;4.12;0.90;;;;;;;26.22;34.12;98881.31;1733841;81;21002;-45
2021/05/15 10:57:21;;;;;;;3.40;1.00;;;;;;;26.24;34.14;98925.98;1734127;81;21585;-45
2021/05/15 11:00:02;;;;;;;2.95;1.05;;;;;;;26.30;34.07;98921.25;1739306;80;21127;-45
2021/05/15 11:02:37;;;;;;;5.35;1.17;;;;;;;26.33;34.13;98921.44;1695547;82;21161;-45
2021/05/15 11:05:14;;;;;;;2.52;1.15;;;;;;;26.32;34.12;98931.36;1742131;80;22111;-45
2021/05/15 11:07:45;;;;;;;4.35;1.07;;;;;;;26.33;34.14;98943.01;1706121;81;21083;-46
2021/05/15 11:10:18;;;;;;;7.97;1.27;;;;;;;26.28;34.37;98920.58;1739906;80;21019;-45
2021/05/15 11:12:53;;;;;;;6.05;1.22;;;;;;;26.20;34.50;98912.48;1732618;81;21036;-45
2021/05/15 11:15:24;;;;;;;4.33;1.30;;;;;;;26.17;34.71;98908.77;1734656;81;21611;-45
2021/05/15 11:18:06;;;;;;;4.40;1.02;;;;;;;25.98;35.11;98911.81;1725365;82;21104;-45
2021/05/15 11:20:48;;;;;;;2.75;0.80;;;;;;;25.81;35.38;98913.10;1725246;81;20985;-45
2021/05/15 11:23:24;;;;;;;3.47;1.20;;;;;;;25.75;35.40;98907.02;1699977;82;21060;-45
2021/05/15 11:26:02;;;;;;;4.72;1.42;;;;;;;25.81;35.30;98897.45;1723945;82;21176;-45
2021/05/15 11:28:35;;;;;;;3.00;0.70;;;;;;;25.90;35.19;98899.96;1723278;82;21694;-45
2021/05/15 11:31:09;;;;;;;4.70;0.90;;;;;;;26.00;35.18;98893.61;1723680;82;22303;-45
2021/05/15 11:33:47;;;;;;;1.32;0.82;;;;;;;25.99;35.24;98892.78;1705055;80;21028;-46
2021/05/15 11:36:21;;;;;;;2.85;0.88;;;;;;;25.92;35.30;98884.49;1700486;82;22088;-45
2021/05/15 11:38:54;;;;;;;4.12;0.85;;;;;;;25.97;35.18;98888.55;1735736;80;21787;-45
2021/05/15 11:41:27;;;;;;;3.60;1.27;;;;;;;26.04;35.02;98881.47;1712258;81;21072;-45
2021/05/15 11:44:01;;;;;;;2.22;1.02;;;;;;;26.14;34.83;98879.45;1737533;81;22473;-44
2021/05/15 11:46:30;;;;;;;3.02;1.00;;;;;;;26.22;34.81;98877.27;1730422;81;21120;-45
2021/05/15 11:48:58;;;;;;;2.22;0.90;;;;;;;26.28;34.60;98877.95;1700461;82;21104;-45
2021/05/15 11:51:26;;;;;;;2.77;1.05;;;;;;;26.31;34.62;98879.80;1725985;81;21046;-45
2021/05/15 11:53:57;;;;;;;2.85;1.00;;;;;;;26.35;34.50;98878.11;1725402;81;21097;-45
2021/05/15 11:56:28;;;;;;;1.90;0.78;;;;;;;26.36;34.47;98877.08;1720206;81;21091;-45
2021/05/15 11:59:03;;;;;;;1.60;0.72;;;;;;;26.38;34.39;98878.61;1702759;82;21041;-46
2021/05/15 12:01:37;;;;;;;2.20;0.80;;;;;;;26.42;34.31;98886.69;1722793;81;21207;-45
2021/05/15 12:04:17;;;;;;;2.42;0.70;;;;;;;26.44;34.25;98880.61;1720999;81;21085;-46
2021/05/15 12:06:48;;;;;;;1.22;0.62;;;;;;;26.46;34.18;98875.05;1689068;83;22028;-45
2021/05/15 12:09:17;;;;;;;1.42;0.85;;;;;;;26.50;34.16;98876.41;1698119;81;21053;-45
2021/05/15 12:11:45;;;;;;;2.20;0.65;;;;;;;26.49;34.07;98874.22;1707650;82;21061;-45
2021/05/15 12:14:14;;;;;;;2.37;0.70;;;;;;;26.54;33.99;98872.33;1734096;81;21056;-46
2021/05/15 12:16:44;;;;;;;1.95;0.70;;;;;;;26.57;33.91;98873.86;1697641;81;21065;-45
2021/05/15 12:19:28;;;;;;;1.92;0.90;;;;;;;26.59;33.84;98867.27;1724976;81;21065;-45
2021/05/15 12:22:04;;;;;;;1.47;0.90;;;;;;;26.63;33.73;98871.35;1721638;81;22141;-46
2021/05/15 12:24:42;;;;;;;1.55;0.65;;;;;;;26.64;33.68;98868.97;1724555;81;21037;-45
2021/05/15 12:27:20;;;;;;;1.42;0.65;;;;;;;26.66;33.61;98875.55;1693344;81;21064;-45
2021/05/15 12:29:59;;;;;;;1.15;0.70;;;;;;;26.66;33.55;98875.06;1721230;81;21112;-45
2021/05/15 12:32:27;;;;;;;1.95;0.90;;;;;;;26.67;33.52;98869.98;1699611;81;21033;-45
2021/05/15 12:35:02;;;;;;;1.75;0.75;;;;;;;26.68;33.50;98878.42;1706095;83;21727;-45
2021/05/15 12:37:37;;;;;;;0.80;0.60;;;;;;;26.72;33.47;98882.13;1732894;81;21072;-45
2021/05/15 12:40:10;;;;;;;2.17;0.70;;;;;;;26.72;33.39;98883.48;1700058;81;21010;-46
2021/05/15 12:42:41;;;;;;;0.95;0.80;;;;;;;26.75;33.36;98883.11;1698836;82;21741;-46
2021/05/15 12:45:16;;;;;;;1.67;0.80;;;;;;;26.77;33.30;98878.41;1701986;82;21066;-45
2021/05/15 12:47:47;;;;;;;3.20;0.80;;;;;;;26.76;33.23;98873.48;1665001;84;21085;-45
2021/05/15 12:50:27;;;;;;;1.32;1.00;;;;;;;26.76;33.23;98872.66;1680643;83;21079;-45
2021/05/15 12:53:10;;;;;;;3.25;0.70;;;;;;;26.78;33.18;98875.53;1683551;84;21044;-45
2021/05/15 12:55:49;;;;;;;0.93;0.60;;;;;;;26.78;33.13;98877.37;1680065;83;21105;-45
2021/05/15 12:58:23;;;;;;;3.20;0.80;;;;;;;26.78;33.09;98878.72;1681925;82;21421;-45
2021/05/15 13:01:05;;;;;;;2.47;0.90;;;;;;;26.80;33.04;98879.41;1715128;81;22287;-45
2021/05/15 13:03:39;;;;;;;1.15;0.80;;;;;;;26.79;33.04;98881.25;1690418;82;21442;-45
2021/05/15 13:06:18;;;;;;;1.07;0.90;;;;;;;26.78;33.05;98878.72;1708576;82;21499;-45
2021/05/15 13:09:02;;;;;;;0.85;0.82;;;;;;;26.76;33.01;98880.75;1675665;83;21105;-45
2021/05/15 13:11:32;;;;;;;2.75;0.85;;;;;;;26.75;33.01;98883.11;1677152;83;21026;-45
2021/05/15 13:14:04;;;;;;;0.80;0.80;;;;;;;26.76;32.98;98882.11;1647621;83;21175;-45
2021/05/15 13:16:35;;;;;;;0.78;0.78;;;;;;;26.75;32.92;98881.76;1650805;83;21078;-45
2021/05/15 13:19:10;;;;;;;1.15;1.00;;;;;;;26.76;32.86;98886.16;1676007;83;21129;-46
2021/05/15 13:21:39;;;;;;;2.45;1.00;;;;;;;26.76;32.77;98891.55;1670196;83;28045;-45
2021/05/15 13:24:13;;;;;;;1.42;1.15;;;;;;;26.76;32.73;98894.25;1672380;83;21057;-45
2021/05/15 13:26:48;;;;;;;1.07;0.95;;;;;;;26.75;32.69;98894.77;1673247;83;22174;-45
2021/05/15 13:29:19;;;;;;;0.85;0.80;;;;;;;26.76;32.65;98896.95;1673133;83;21074;-46
2021/05/15 13:31:52;;;;;;;1.60;0.88;;;;;;;26.75;32.60;98892.55;1675891;83;21099;-45
2021/05/15 13:34:25;;;;;;;1.25;1.15;;;;;;;26.73;32.60;98894.59;1649139;83;21604;-46
2021/05/15 13:36:57;;;;;;;1.40;1.30;;;;;;;26.71;32.56;98897.45;1653440;83;21112;-46
2021/05/15 13:39:35;;;;;;;0.90;0.62;;;;;;;26.71;32.54;98897.97;1673795;83;25746;-45
2021/05/15 13:42:06;;;;;;;1.30;1.05;;;;;;;26.69;32.50;98900.33;1647516;83;21056;-46
2021/05/15 13:44:39;;;;;;;1.77;1.15;;;;;;;26.68;32.46;98898.66;1671897;83;21036;-46
2021/05/15 13:47:10;;;;;;;2.50;1.00;;;;;;;26.68;32.42;98898.66;1687712;82;21061;-45
2021/05/15 13:49:42;;;;;;;3.35;0.90;;;;;;;26.67;32.39;98902.36;1715757;81;21068;-45
2021/05/15 13:52:16;;;;;;;3.60;1.37;;;;;;;26.65;32.40;98906.26;1740957;81;21436;-46
2021/05/15 13:54:51;;;;;;;1.32;1.10;;;;;;;26.65;32.40;98904.39;1706839;82;22015;-45
2021/05/15 13:57:23;;;;;;;2.58;0.80;;;;;;;26.67;32.32;98909.11;1705822;82;21090;-45
2021/05/15 13:59:58;;;;;;;2.20;0.70;;;;;;;26.68;32.25;98909.97;1706081;82;21116;-46
2021/05/15 14:02:28;;;;;;;1.32;0.85;;;;;;;26.67;32.20;98907.75;1706145;82;21034;-45
2021/05/15 14:05:03;;;;;;;1.45;0.80;;;;;;;26.66;32.20;98903.87;1681064;84;21128;-45
2021/05/15 14:07:43;;;;;;;1.55;0.90;;;;;;;26.67;32.13;98906.92;1711878;82;21076;-46
2021/05/15 14:10:18;;;;;;;2.47;0.90;;;;;;;26.68;32.06;98898.66;1714430;82;21049;-46
2021/05/15 14:12:52;;;;;;;1.52;0.90;;;;;;;26.68;31.99;98881.64;1698746;83;21745;-46
2021/05/15 14:15:26;;;;;;;2.87;1.00;;;;;;;26.66;31.98;98889.03;1701637;83;21233;-45
2021/05/15 14:18:00;;;;;;;1.20;1.05;;;;;;;26.63;31.96;98879.45;1705212;82;22461;-45
2021/05/15 14:20:41;;;;;;;1.20;1.10;;;;;;;26.61;31.98;98878.75;1704286;82;21025;-45
2021/05/15 14:23:13;;;;;;;2.52;1.00;;;;;;;26.57;32.00;98874.70;1701397;82;21089;-45
2021/05/15 14:25:47;;;;;;;3.35;0.75;;;;;;;26.56;32.05;98872.16;1735091;80;21092;-46
2021/05/15 14:28:20;;;;;;;1.15;0.70;;;;;;;26.53;32.10;98872.02;1737689;81;21086;-45
2021/05/15 14:30:51;;;;;;;1.05;0.98;;;;;;;26.53;32.11;98869.32;1711841;81;21105;-45
2021/05/15 14:33:20;;;;;;;1.17;0.80;;;;;;;26.54;32.12;98864.76;1705016;82;22096;-45
2021/05/15 14:35:54;;;;;;;3.92;0.95;;;;;;;26.54;32.11;98866.94;1738889;81;21022;-45
2021/05/15 14:38:30;;;;;;;2.35;1.00;;;;;;;26.56;32.11;98869.47;1738545;81;22395;-45
2021/05/15 14:41:03;;;;;;;0.85;0.62;;;;;;;26.56;32.10;98866.25;1740790;81;22066;-45
2021/05/15 14:43:40;;;;;;;1.02;0.90;;;;;;;26.57;32.06;98869.30;1707019;82;21060;-45
2021/05/15 14:46:10;;;;;;;0.95;0.80;;;;;;;26.57;32.05;98869.30;1720591;81;21069;-46
2021/05/15 14:48:44;;;;;;;1.60;0.90;;;;;;;26.59;31.94;98875.36;1761854;80;21036;-45
2021/05/15 14:51:14;;;;;;;1.10;1.00;;;;;;;26.62;31.84;98872.84;1727990;81;21081;-45
2021/05/15 14:53:47;;;;;;;1.00;1.00;;;;;;;26.64;31.74;98878.41;1727684;81;21645;-45
2021/05/15 14:56:20;;;;;;;1.95;0.90;;;;;;;26.65;31.66;98884.16;1719568;80;21096;-45
2021/05/15 14:58:54;;;;;;;1.10;0.98;;;;;;;26.64;31.64;98879.77;1728270;80;21160;-45
2021/05/15 15:01:25;;;;;;;1.60;0.75;;;;;;;26.64;31.61;98880.28;1728491;81;21045;-45
2021/05/15 15:03:57;;;;;;;0.90;0.78;;;;;;;26.63;31.55;98882.63;1728584;81;21723;-45
2021/05/15 15:06:28;;;;;;;1.90;1.02;;;;;;;26.63;31.52;98883.98;1759979;80;21092;-45
2021/05/15 15:09:03;;;;;;;1.00;0.82;;;;;;;26.61;31.55;98880.10;1759739;80;21403;-44
2021/05/15 15:11:34;;;;;;;1.57;0.90;;;;;;;26.61;31.53;98878.75;1727583;81;21034;-45
2021/05/15 15:14:08;;;;;;;1.25;1.12;;;;;;;26.60;31.54;98882.45;1760312;80;21040;-45
2021/05/15 15:16:40;;;;;;;1.10;1.10;;;;;;;26.58;31.52;98883.14;1700686;81;21963;-45
2021/05/15 15:19:14;;;;;;;0.88;0.70;;;;;;;26.56;31.53;98882.44;1728780;81;21033;-46
2021/05/15 15:21:46;;;;;;;1.72;0.95;;;;;;;26.55;31.53;98882.13;1760923;80;21740;-45
2021/05/15 15:24:18;;;;;;;1.20;1.10;;;;;;;26.53;31.53;98881.46;1730230;81;21121;-46
2021/05/15 15:26:58;;;;;;;2.72;1.30;;;;;;;26.55;31.49;98887.52;1728656;81;21006;-45
2021/05/15 15:29:29;;;;;;;1.35;1.17;;;;;;;26.55;31.41;98890.22;1760268;80;21052;-45
2021/05/15 15:31:59;;;;;;;1.98;1.25;;;;;;;26.55;31.36;98887.52;1701436;81;21073;-45
2021/05/15 15:34:31;;;;;;;1.42;1.10;;;;;;;26.53;31.36;98889.55;1758320;80;21717;-45
2021/05/15 15:37:06;;;;;;;1.62;1.07;;;;;;;26.50;31.37;98892.07;1760807;80;21068;-45
2021/05/15 15:39:37;;;;;;;0.90;0.90;;;;;;;26.49;31.38;98890.89;1759597;79;21044;-45
2021/05/15 15:42:13;;;;;;;1.80;1.20;;;;;;;26.46;31.42;98892.58;1730927;81;21220;-45
2021/05/15 15:44:48;;;;;;;1.45;1.12;;;;;;;26.45;31.44;98894.95;1759932;79;22052;-46
2021/05/15 15:47:22;;;;;;;1.35;1.10;;;;;;;26.43;31.44;98887.55;1728102;81;21082;-45
2021/05/15 15:49:52;;;;;;;1.95;1.30;;;;;;;26.40;31.46;98886.02;1696306;81;21033;-45
2021/05/15 15:52:27;;;;;;;1.27;1.00;;;;;;;26.40;31.47;98889.23;1761862;80;20952;-45
2021/05/15 15:55:00;;;;;;;1.85;1.10;;;;;;;26.37;31.52;98887.70;1732041;81;21042;-45
2021/05/15 15:57:36;;;;;;;1.47;1.00;;;;;;;26.35;31.52;98881.64;1730623;81;21097;-45
2021/05/15 16:00:12;;;;;;;1.20;1.10;;;;;;;26.32;31.55;98882.81;1723356;80;21072;-45
2021/05/15 16:02:45;;;;;;;1.40;1.00;;;;;;;26.31;31.58;98877.10;1728855;81;21148;-45
2021/05/15 16:05:17;;;;;;;1.65;1.05;;;;;;;26.29;31.64;98881.83;1672041;83;21869;-46
2021/05/15 16:07:50;;;;;;;1.95;0.95;;;;;;;26.29;31.65;98883.17;1760552;80;21056;-45
2021/05/15 16:10:25;;;;;;;1.98;1.10;;;;;;;26.29;31.65;98886.36;1729848;81;21037;-45
2021/05/15 16:12:54;;;;;;;2.52;0.82;;;;;;;26.27;31.66;98878.44;1749759;80;21059;-45
2021/05/15 16:15:24;;;;;;;1.30;1.00;;;;;;;26.28;31.65;98884.17;1732809;81;21033;-45
2021/05/15 16:18:01;;;;;;;1.05;0.93;;;;;;;26.29;31.64;98884.52;1696904;81;21073;-45
2021/05/15 16:20:37;;;;;;;3.08;1.12;;;;;;;26.28;31.65;98884.17;1731579;81;21045;-45
2021/05/15 16:23:10;;;;;;;2.60;1.20;;;;;;;26.27;31.65;98886.52;1760481;80;21112;-45
2021/05/15 16:25:46;;;;;;;3.75;1.80;;;;;;;26.25;31.67;98889.91;1729627;81;21108;-45
2021/05/15 16:28:21;;;;;;;1.67;1.40;;;;;;;26.23;31.71;98883.84;1732351;81;21451;-45
2021/05/15 16:30:53;;;;;;;3.47;1.12;;;;;;;26.22;31.73;98887.54;1760864;80;21107;-45
2021/05/15 16:33:25;;;;;;;3.95;1.42;;;;;;;26.19;31.75;98885.17;1728309;81;21061;-45
2021/05/15 16:35:58;;;;;;;2.10;1.62;;;;;;;26.17;31.80;98885.86;1757681;80;21964;-45
2021/05/15 16:38:33;;;;;;;4.00;1.62;;;;;;;26.16;31.80;98896.33;1727232;81;21152;-45